Tiempo atmosférico en la estación meteorológica de Cañizares, Cuenca (940 m.)

Fecha
DESCASC
Temp. máxima en grados centígrados (hora)
DESCASC
Temp. mínima en grados centígrados (hora)
DESCASC
Temp. media en grados centígrados
DESCASC
Racha de viento máxima en m/sg (hora)
DESCASC
Velocidad máxima media en intervalos de 10 minutos(hora)
DESCASC
Precipitaciones diarias en mm
DESCASC
Precipitaciones de 00:00 a 06:00 en mm
DESCASC
Precipitaciones de 06:00 a 12:00 en mm
DESCASC
Precipitaciones de 12:00 a 18:00 en mm
DESCASC
Precipitaciones de 18:00 a 24:00 en mm
DESCASC
03-09-2017 30.6 (17:20) 8.9 (05:40) 19.8 -- (--) -- (--) 0 0 0 0 0
02-09-2017 29.6 (18:00) 7.6 (08:10) 18.6 -- (--) -- (--) 0 0 0 0 0
01-09-2017 27.8 (18:20) 12.4 (05:30) 20.1 -- (--) -- (--) 0 0 0 0 0
31-08-2017 28.3 (17:50) 13 (00:00) 20.6 -- (--) -- (--) 0 0 0 0 0
30-08-2017 26.6 (18:50) 13.4 (00:00) 20 -- (--) -- (--) 0 0 0 0 0
29-08-2017 25.2 (14:10) 13.1 (00:00) 19.2 -- (--) -- (--) 22.8 0 19.8 2.4 0.6
28-08-2017 28.5 (12:10) 13.6 (00:00) 21.1 -- (--) -- (--) 0 0 0 0 0
27-08-2017 24.4 (12:10) 14.8 (00:00) 19.6 -- (--) -- (--) 0 0 0 0 0
26-08-2017 33.8 (16:30) 13.6 (00:00) 23.7 -- (--) -- (--) 0 0 0 0 0
25-08-2017 33.9 (15:10) 14.8 (00:00) 24.4 -- (--) -- (--) 0 0 0 0 0
24-08-2017 35.1 (17:20) 14 (00:00) 24.5 -- (--) -- (--) 0 0 0 0 0

Gráficas

Temp. máximas Temp. mínimas Temp. medias Precipitaciones Rachas de viento máximas Velocidades máximas media en intervalos de 10 minutos

Datos horarios

Fecha y hora oficial Temperatura (ºC) Velocidad del viento (km/h) Dirección del viento Racha (km/h) Dirección de racha Precipitación (mm) Presión (hPa) Tendencia (hPa) Humedad (%)
2017-09-05 17:00:00 30.6 -- -- -- -- 0 -- -- 49
2017-09-05 16:00:00 30 -- -- -- -- 0 -- -- 52
2017-09-05 15:00:00 28.3 -- -- -- -- 0 -- -- 55
2017-09-05 14:00:00 25.2 -- -- -- -- 0 -- -- 62
2017-09-05 13:00:00 27.3 -- -- -- -- 0 -- -- 61
2017-09-05 12:00:00 25.4 -- -- -- -- 0 -- -- 69
2017-09-05 11:00:00 22 -- -- -- -- 0 -- -- 96
2017-09-05 10:00:00 15.4 -- -- -- -- 0 -- -- 99
2017-09-05 09:00:00 12.6 -- -- -- -- 0 -- -- 99
2017-09-05 08:00:00 12.1 -- -- -- -- 0 -- -- 99
2017-09-05 07:00:00 12.4 -- -- -- -- 0 -- -- 99
2017-09-05 06:00:00 12.8 -- -- -- -- 0 -- -- 99
2017-09-05 05:00:00 13.1 -- -- -- -- 0 -- -- 99
2017-09-05 04:00:00 13.7 -- -- -- -- 0 -- -- 99
2017-09-05 03:00:00 14.3 -- -- -- -- 0 -- -- 99
2017-09-05 02:00:00 14.8 -- -- -- -- 0 -- -- 99
2017-09-05 01:00:00 15.4 -- -- -- -- 0 -- -- 99
2017-09-05 00:00:00 16 -- -- -- -- 0 -- -- 99
2017-09-04 23:00:00 17.1 -- -- -- -- 0 -- -- 99
2017-09-04 22:00:00 18.7 -- -- -- -- 0 -- -- 91
2017-09-04 21:00:00 21.1 -- -- -- -- 0 -- -- 76
2017-09-04 20:00:00 24.3 -- -- -- -- 0 -- -- 58
2017-09-04 19:00:00 30.3 -- -- -- -- 0 -- -- 48
2017-09-04 18:00:00 28.1 -- -- -- -- 0 -- -- 49
2017-09-04 17:00:00 29.9 -- -- -- -- 0 -- -- 47
2017-09-04 16:00:00 29.4 -- -- -- -- 0 -- -- 49
2017-09-04 15:00:00 27.8 -- -- -- -- 0 -- -- 51
2017-09-04 14:00:00 27.1 -- -- -- -- 0 -- -- 56
2017-09-04 13:00:00 26.2 -- -- -- -- 0 -- -- 62
2017-09-04 12:00:00 24.8 -- -- -- -- 0 -- -- 69
2017-09-04 11:00:00 21.4 -- -- -- -- 0 -- -- 85
2017-09-04 10:00:00 13.5 -- -- -- -- 0 -- -- 99
2017-09-04 09:00:00 9.9 -- -- -- -- 0 -- -- 99
2017-09-04 08:00:00 9.1 -- -- -- -- 0 -- -- 99
2017-09-04 07:00:00 9.4 -- -- -- -- 0 -- -- 99
2017-09-04 06:00:00 9.9 -- -- -- -- 0 -- -- 99
2017-09-04 05:00:00 10.4 -- -- -- -- 0 -- -- 99
2017-09-04 04:00:00 11.2 -- -- -- -- 0 -- -- 99
2017-09-04 03:00:00 11.8 -- -- -- -- 0 -- -- 99
2017-09-04 02:00:00 12.9 -- -- -- -- 0 -- -- 99
2017-09-04 01:00:00 14.1 -- -- -- -- 0 -- -- 99
2017-09-04 00:00:00 15 -- -- -- -- 0 -- -- 98
2017-09-03 23:00:00 15.8 -- -- -- -- 0 -- -- 95
2017-09-03 22:00:00 17.3 -- -- -- -- 0 -- -- 89
2017-09-03 21:00:00 18.9 -- -- -- -- 0 -- -- 77
2017-09-03 20:00:00 22.8 -- -- -- -- 0 -- -- 55
2017-09-03 19:00:00 28 -- -- -- -- 0 -- -- 39
2017-09-03 18:00:00 29.3 -- -- -- -- 0 -- -- 37
2017-09-03 17:00:00 28.4 -- -- -- -- 0 -- -- 38
2017-09-03 16:00:00 28.7 -- -- -- -- 0 -- -- 38
2017-09-03 15:00:00 28.4 -- -- -- -- 0 -- -- 38
2017-09-03 14:00:00 25.9 -- -- -- -- 0 -- -- 40
2017-09-03 13:00:00 26.3 -- -- -- -- 0 -- -- 43
2017-09-03 12:00:00 24.2 -- -- -- -- 0 -- -- 50
2017-09-03 11:00:00 19.9 -- -- -- -- 0 -- -- 71
2017-09-03 10:00:00 14.8 -- -- -- -- 0 -- -- 92
2017-09-03 09:00:00 11.4 -- -- -- -- 0 -- -- 99
2017-09-03 08:00:00 10 -- -- -- -- 0 -- -- 99
2017-09-03 07:00:00 9.2 -- -- -- -- 0 -- -- 99
2017-09-03 06:00:00 9.3 -- -- -- -- 0 -- -- 99
2017-09-03 05:00:00 9.5 -- -- -- -- 0 -- -- 99
2017-09-03 04:00:00 10 -- -- -- -- 0 -- -- 99
2017-09-03 03:00:00 9.9 -- -- -- -- 0 -- -- 99
2017-09-03 02:00:00 10.6 -- -- -- -- 0 -- -- 99
2017-09-03 01:00:00 11.2 -- -- -- -- 0 -- -- 99
2017-09-03 00:00:00 11.9 -- -- -- -- 0 -- -- 95
2017-09-02 23:00:00 13.3 -- -- -- -- 0 -- -- 92
2017-09-02 22:00:00 14.4 -- -- -- -- 0 -- -- 90
2017-09-02 21:00:00 16.2 -- -- -- -- 0 -- -- 82
2017-09-02 20:00:00 20.7 -- -- -- -- 0 -- -- 58
2017-09-02 19:00:00 27.7 -- -- -- -- 0 -- -- 34
2017-09-02 18:00:00 28.9 -- -- -- -- 0 -- -- 35
2017-09-02 17:00:00 27.3 -- -- -- -- 0 -- -- 34
2017-09-02 16:00:00 27.4 -- -- -- -- 0 -- -- 37
2017-09-02 15:00:00 25.5 -- -- -- -- 0 -- -- 38
2017-09-02 14:00:00 24.1 -- -- -- -- 0 -- -- 42
2017-09-02 13:00:00 22.8 -- -- -- -- 0 -- -- 44
2017-09-02 12:00:00 20.5 -- -- -- -- 0 -- -- 53
2017-09-02 11:00:00 17.3 -- -- -- -- 0 -- -- 79
2017-09-02 10:00:00 10.8 -- -- -- -- 0 -- -- 99
2017-09-02 09:00:00 8 -- -- -- -- 0 -- -- 99
2017-09-02 08:00:00 7.7 -- -- -- -- 0 -- -- 99
2017-09-02 07:00:00 8.5 -- -- -- -- 0 -- -- 99
2017-09-02 06:00:00 8.9 -- -- -- -- 0 -- -- 99
2017-09-02 05:00:00 9.5 -- -- -- -- 0 -- -- 99
2017-09-02 04:00:00 10.4 -- -- -- -- 0 -- -- 99
2017-09-02 03:00:00 11.3 -- -- -- -- 0 -- -- 99
2017-09-02 02:00:00 12.4 -- -- -- -- 0 -- -- 99
2017-09-02 01:00:00 13.7 -- -- -- -- 0 -- -- 93
2017-09-02 00:00:00 14.6 -- -- -- -- 0 -- -- 87
2017-09-01 23:00:00 16.4 -- -- -- -- 0 -- -- 81
2017-09-01 22:00:00 18.3 -- -- -- -- 0 -- -- 81
2017-09-01 21:00:00 19 -- -- -- -- 0 -- -- 75
2017-09-01 20:00:00 22.1 -- -- -- -- 0 -- -- 58
2017-09-01 19:00:00 25.9 -- -- -- -- 0 -- -- 51
2017-09-01 18:00:00 26.1 -- -- -- -- 0 -- -- 51
2017-09-01 17:00:00 23.8 -- -- -- -- 0 -- -- 61
2017-09-01 16:00:00 25.5 -- -- -- -- 0 -- -- 60
2017-09-01 15:00:00 23.7 -- -- -- -- 0 -- -- 67
2017-09-01 14:00:00 24.1 -- -- -- -- 0 -- -- 71
2017-09-01 13:00:00 23.2 -- -- -- -- 0 -- -- 74
2017-09-01 12:00:00 21.7 -- -- -- -- 0 -- -- 84
2017-09-01 11:00:00 19.9 -- -- -- -- 0 -- -- 92
2017-09-01 10:00:00 17.2 -- -- -- -- 0 -- -- 99
2017-09-01 09:00:00 15.4 -- -- -- -- 0 -- -- 99
2017-09-01 08:00:00 14.5 -- -- -- -- 0 -- -- 99
2017-09-01 07:00:00 13.8 -- -- -- -- 0 -- -- 99
2017-09-01 06:00:00 12.9 -- -- -- -- 0 -- -- 99
2017-09-01 05:00:00 12.6 -- -- -- -- 0 -- -- 99
2017-09-01 04:00:00 13.1 -- -- -- -- 0 -- -- 99
2017-09-01 03:00:00 13.5 -- -- -- -- 0 -- -- 99
2017-09-01 02:00:00 13.9 -- -- -- -- 0 -- -- 99
2017-09-01 01:00:00 14.6 -- -- -- -- 0 -- -- 99
2017-09-01 00:00:00 15 -- -- -- -- 0 -- -- 99
2017-08-31 23:00:00 16 -- -- -- -- 0 -- -- 99
2017-08-31 22:00:00 17.3 -- -- -- -- 0 -- -- 99
2017-08-31 21:00:00 18.4 -- -- -- -- 0 -- -- 99
2017-08-31 20:00:00 21.6 -- -- -- -- 0 -- -- 80
2017-08-31 19:00:00 22.9 -- -- -- -- 0 -- -- 69
2017-08-31 18:00:00 25.4 -- -- -- -- 0 -- -- 55
2017-08-31 17:00:00 26.4 -- -- -- -- 0 -- -- 56
2017-08-31 16:00:00 23.1 -- -- -- -- 0 -- -- 68
2017-08-31 15:00:00 23.8 -- -- -- -- 0 -- -- 64
2017-08-31 14:00:00 22.3 -- -- -- -- 0 -- -- 67
2017-08-31 13:00:00 22 -- -- -- -- 0 -- -- 68
2017-08-31 12:00:00 22.6 -- -- -- -- 0 -- -- 67
2017-08-31 11:00:00 22 -- -- -- -- 0 -- -- 83
2017-08-31 10:00:00 16.5 -- -- -- -- 0 -- -- 99
2017-08-31 09:00:00 14.5 -- -- -- -- 0 -- -- 99
2017-08-31 08:00:00 13.3 -- -- -- -- 0 -- -- 99
2017-08-31 07:00:00 13.3 -- -- -- -- 0 -- -- 99
2017-08-31 06:00:00 13.5 -- -- -- -- 0 -- -- 99
2017-08-31 05:00:00 13.7 -- -- -- -- 0 -- -- 99
2017-08-31 04:00:00 13.9 -- -- -- -- 0 -- -- 99
2017-08-31 03:00:00 14.7 -- -- -- -- 0 -- -- 99
2017-08-31 02:00:00 15.2 -- -- -- -- 0 -- -- 99
2017-08-31 01:00:00 15.6 -- -- -- -- 0 -- -- 99
2017-08-31 00:00:00 16.2 -- -- -- -- 0 -- -- 99
2017-08-30 23:00:00 16.6 -- -- -- -- 0 -- -- 99
2017-08-30 22:00:00 16.4 -- -- -- -- 0 -- -- 99
2017-08-30 21:00:00 17.5 -- -- -- -- 0 -- -- 99
2017-08-30 20:00:00 19.9 -- -- -- -- 0 -- -- 86
2017-08-30 19:00:00 23.9 -- -- -- -- 0 -- -- 59
2017-08-30 18:00:00 25.1 -- -- -- -- 0 -- -- 58
2017-08-30 17:00:00 25 -- -- -- -- 0 -- -- 60
2017-08-30 16:00:00 25 -- -- -- -- 0 -- -- 68
2017-08-30 15:00:00 22.5 -- -- -- -- 0 -- -- 78
2017-08-30 14:00:00 22.2 -- -- -- -- 0 -- -- 80
2017-08-30 13:00:00 22.1 -- -- -- -- 0 -- -- 85
2017-08-30 12:00:00 21.4 -- -- -- -- 0 -- -- 95
2017-08-30 11:00:00 18.3 -- -- -- -- 0 -- -- 99
2017-08-30 10:00:00 15.8 -- -- -- -- 0 -- -- 99
2017-08-30 09:00:00 14.6 -- -- -- -- 0 -- -- 99
2017-08-30 08:00:00 13.5 -- -- -- -- 0 -- -- 99
2017-08-30 07:00:00 13.8 -- -- -- -- 0 -- -- 99
2017-08-30 06:00:00 13.9 -- -- -- -- 0 -- -- 99
2017-08-30 05:00:00 14.1 -- -- -- -- 0 -- -- 99
2017-08-30 04:00:00 14.2 -- -- -- -- 0 -- -- 99
2017-08-30 03:00:00 14.5 -- -- -- -- 0 -- -- 99
2017-08-30 02:00:00 14.4 -- -- -- -- 0 -- -- 99
2017-08-30 01:00:00 14.3 -- -- -- -- 0 -- -- 99
2017-08-30 00:00:00 14.5 -- -- -- -- 0 -- -- 99
2017-08-29 23:00:00 14.5 -- -- -- -- 0 -- -- 99
2017-08-29 22:00:00 15.1 -- -- -- -- 0 -- -- 99
2017-08-29 21:00:00 16 -- -- -- -- 0 -- -- 99
2017-08-29 20:00:00 17.3 -- -- -- -- 0 -- -- 99
2017-08-29 19:00:00 18.4 -- -- -- -- 0.6 -- -- 99
2017-08-29 18:00:00 17.6 -- -- -- -- 2.4 -- -- 99
2017-08-29 17:00:00 23.5 -- -- -- -- 0 -- -- 76
2017-08-29 16:00:00 22.2 -- -- -- -- 0 -- -- 84
2017-08-29 15:00:00 23.5 -- -- -- -- 0 -- -- 78
2017-08-29 14:00:00 24.1 -- -- -- -- 0 -- -- 80
2017-08-29 13:00:00 22.6 -- -- -- -- 0 -- -- 87
2017-08-29 12:00:00 21 -- -- -- -- 0 -- -- 99
2017-08-29 11:00:00 17.3 -- -- -- -- 0 -- -- 99
2017-08-29 10:00:00 15.1 -- -- -- -- 0 -- -- 99
2017-08-29 09:00:00 14 -- -- -- -- 19.8 -- -- 99
2017-08-29 08:00:00 14.3 -- -- -- -- 0 -- -- 99
2017-08-29 07:00:00 13.9 -- -- -- -- 0 -- -- 99
2017-08-29 06:00:00 13.7 -- -- -- -- 0 -- -- 99
2017-08-29 05:00:00 13.8 -- -- -- -- 0 -- -- 99
2017-08-29 04:00:00 13.3 -- -- -- -- 0 -- -- 99
2017-08-29 03:00:00 13.6 -- -- -- -- 0 -- -- 99
2017-08-29 02:00:00 14.5 -- -- -- -- 0 -- -- 99
2017-08-29 01:00:00 15 -- -- -- -- 0 -- -- 99
2017-08-29 00:00:00 14.9 -- -- -- -- 0 -- -- 99
2017-08-28 23:00:00 15 -- -- -- -- 0 -- -- 99
2017-08-28 22:00:00 15.7 -- -- -- -- 0 -- -- 99
2017-08-28 21:00:00 16.7 -- -- -- -- 0 -- -- 99
2017-08-28 20:00:00 17.2 -- -- -- -- 0 -- -- 99
2017-08-28 19:00:00 17.9 -- -- -- -- 0 -- -- 99
2017-08-28 18:00:00 23.4 -- -- -- -- 0 -- -- 74
2017-08-28 17:00:00 25.3 -- -- -- -- 0 -- -- 68
2017-08-28 16:00:00 26 -- -- -- -- 0 -- -- 69
2017-08-28 15:00:00 23.7 -- -- -- -- 0 -- -- 79
2017-08-28 14:00:00 26.8 -- -- -- -- 0 -- -- 64
2017-08-28 13:00:00 27.8 -- -- -- -- 0 -- -- 66
2017-08-28 12:00:00 28.3 -- -- -- -- 0 -- -- 59
2017-08-28 11:00:00 23.1 -- -- -- -- 0 -- -- 99
2017-08-28 10:00:00 17.8 -- -- -- -- 0 -- -- 99
2017-08-28 09:00:00 15.7 -- -- -- -- 0 -- -- 99
2017-08-28 08:00:00 14.4 -- -- -- -- 0 -- -- 99
2017-08-28 07:00:00 14.2 -- -- -- -- 0 -- -- 99
2017-08-28 06:00:00 13.9 -- -- -- -- 0 -- -- 99
2017-08-28 05:00:00 13.9 -- -- -- -- 0 -- -- 99
2017-08-28 04:00:00 14.1 -- -- -- -- 0 -- -- 99
2017-08-28 03:00:00 14 -- -- -- -- 0 -- -- 99
2017-08-28 02:00:00 14.1 -- -- -- -- 0 -- -- 99
2017-08-28 01:00:00 14.3 -- -- -- -- 0 -- -- 99
2017-08-28 00:00:00 14.9 -- -- -- -- 0 -- -- 99
2017-08-27 23:00:00 15.8 -- -- -- -- 0 -- -- 99
2017-08-27 22:00:00 16.6 -- -- -- -- 0 -- -- 99
2017-08-27 21:00:00 17.6 -- -- -- -- 0 -- -- 99
2017-08-27 20:00:00 18.6 -- -- -- -- 0 -- -- 99
2017-08-27 19:00:00 20.1 -- -- -- -- 0 -- -- 99
2017-08-27 18:00:00 19.6 -- -- -- -- 0 -- -- 99
2017-08-27 17:00:00 17.3 -- -- -- -- 0 -- -- 99
2017-08-27 16:00:00 19.8 -- -- -- -- 0 -- -- 99
2017-08-27 15:00:00 21.9 -- -- -- -- 0 -- -- 99
2017-08-27 14:00:00 19.7 -- -- -- -- 0 -- -- 99
2017-08-27 13:00:00 19.2 -- -- -- -- 0 -- -- 99
2017-08-27 12:00:00 24.3 -- -- -- -- 0 -- -- 87
2017-08-27 11:00:00 22.3 -- -- -- -- 0 -- -- 99
2017-08-27 10:00:00 17.3 -- -- -- -- 0 -- -- 99
2017-08-27 09:00:00 16.2 -- -- -- -- 0 -- -- 99
2017-08-27 08:00:00 15.7 -- -- -- -- 0 -- -- 99
2017-08-27 07:00:00 15.5 -- -- -- -- 0 -- -- 99
2017-08-27 06:00:00 16 -- -- -- -- 0 -- -- 99
2017-08-27 05:00:00 16.1 -- -- -- -- 0 -- -- 99
2017-08-27 04:00:00 16.4 -- -- -- -- 0 -- -- 99
2017-08-27 03:00:00 17 -- -- -- -- 0 -- -- 99
2017-08-27 02:00:00 17.7 -- -- -- -- 0 -- -- 99
2017-08-27 01:00:00 18.4 -- -- -- -- 0 -- -- 99
2017-08-27 00:00:00 21 -- -- -- -- 0 -- -- 86
2017-08-26 23:00:00 20.9 -- -- -- -- 0 -- -- 80
2017-08-26 22:00:00 22.8 -- -- -- -- 0 -- -- 72
2017-08-26 21:00:00 24.7 -- -- -- -- 0 -- -- 65
2017-08-26 20:00:00 28 -- -- -- -- 0 -- -- 53
2017-08-26 19:00:00 29.3 -- -- -- -- 0 -- -- 51
2017-08-26 18:00:00 32 -- -- -- -- 0 -- -- 53
2017-08-26 17:00:00 31.5 -- -- -- -- 0 -- -- 52
2017-08-26 16:00:00 31.3 -- -- -- -- 0 -- -- 52
2017-08-26 15:00:00 31.9 -- -- -- -- 0 -- -- 52
2017-08-26 14:00:00 31.8 -- -- -- -- 0 -- -- 52
2017-08-26 13:00:00 31 -- -- -- -- 0 -- -- 52
2017-08-26 12:00:00 30.4 -- -- -- -- 0 -- -- 60
2017-08-26 11:00:00 24.8 -- -- -- -- 0 -- -- 96
2017-08-26 10:00:00 19.7 -- -- -- -- 0 -- -- 99
2017-08-26 09:00:00 15.8 -- -- -- -- 0 -- -- 99
2017-08-26 08:00:00 13.7 -- -- -- -- 0 -- -- 99
2017-08-26 07:00:00 14 -- -- -- -- 0 -- -- 99
2017-08-26 06:00:00 14.9 -- -- -- -- 0 -- -- 99
2017-08-26 05:00:00 15.3 -- -- -- -- 0 -- -- 99
2017-08-26 04:00:00 15.6 -- -- -- -- 0 -- -- 99
2017-08-26 03:00:00 16.6 -- -- -- -- 0 -- -- 99
2017-08-26 02:00:00 17.4 -- -- -- -- 0 -- -- 99
2017-08-26 01:00:00 19 -- -- -- -- 0 -- -- 98
2017-08-26 00:00:00 20.6 -- -- -- -- 0 -- -- 95
2017-08-25 23:00:00 23 -- -- -- -- 0 -- -- 80
2017-08-25 22:00:00 25 -- -- -- -- 0 -- -- 71
2017-08-25 21:00:00 26.4 -- -- -- -- 0 -- -- 68
2017-08-25 20:00:00 29.2 -- -- -- -- 0 -- -- 56
2017-08-25 19:00:00 29.9 -- -- -- -- 0 -- -- 56
2017-08-25 18:00:00 26.2 -- -- -- -- 0 -- -- 80
2017-08-25 17:00:00 29.6 -- -- -- -- 0 -- -- 50
2017-08-25 16:00:00 31.3 -- -- -- -- 0 -- -- 47
2017-08-25 15:00:00 33.1 -- -- -- -- 0 -- -- 45
2017-08-25 14:00:00 32.3 -- -- -- -- 0 -- -- 46
2017-08-25 13:00:00 32.4 -- -- -- -- 0 -- -- 47
2017-08-25 12:00:00 30.5 -- -- -- -- 0 -- -- 52
2017-08-25 11:00:00 25.6 -- -- -- -- 0 -- -- 90
2017-08-25 10:00:00 20.7 -- -- -- -- 0 -- -- 99
2017-08-25 09:00:00 17.1 -- -- -- -- 0 -- -- 99
2017-08-25 08:00:00 15.1 -- -- -- -- 0 -- -- 99
2017-08-25 07:00:00 15.3 -- -- -- -- 0 -- -- 99
2017-08-25 06:00:00 15.7 -- -- -- -- 0 -- -- 99
2017-08-25 05:00:00 16.2 -- -- -- -- 0 -- -- 99
2017-08-25 04:00:00 17.3 -- -- -- -- 0 -- -- 99
2017-08-25 03:00:00 18.1 -- -- -- -- 0 -- -- 95
2017-08-25 02:00:00 18.9 -- -- -- -- 0 -- -- 90
2017-08-25 01:00:00 20.8 -- -- -- -- 0 -- -- 81
2017-08-25 00:00:00 22.1 -- -- -- -- 0 -- -- 80
2017-08-24 23:00:00 21.9 -- -- -- -- 0 -- -- 80
2017-08-24 22:00:00 22.7 -- -- -- -- 0 -- -- 76
2017-08-24 21:00:00 25.3 -- -- -- -- 0 -- -- 64
2017-08-24 20:00:00 31.2 -- -- -- -- 0 -- -- 49
2017-08-24 19:00:00 33.4 -- -- -- -- 0 -- -- 44
2017-08-24 18:00:00 33.6 -- -- -- -- 0 -- -- 44
2017-08-24 17:00:00 34.4 -- -- -- -- 0 -- -- 44
2017-08-24 16:00:00 34.7 -- -- -- -- 0 -- -- 47
2017-08-24 15:00:00 33.9 -- -- -- -- 0 -- -- 47
2017-08-24 14:00:00 32.5 -- -- -- -- 0 -- -- 47
2017-08-24 13:00:00 31.8 -- -- -- -- 0 -- -- 49
2017-08-24 12:00:00 30.6 -- -- -- -- 0 -- -- 54
2017-08-24 11:00:00 25.8 -- -- -- -- 0 -- -- 80
2017-08-24 10:00:00 19.6 -- -- -- -- 0 -- -- 99
2017-08-24 09:00:00 15.5 -- -- -- -- 0 -- -- 99
2017-08-24 08:00:00 14.6 -- -- -- -- 0 -- -- 99
2017-08-24 07:00:00 14.8 -- -- -- -- 0 -- -- 99
2017-08-24 06:00:00 15.9 -- -- -- -- 0 -- -- 99
2017-08-24 05:00:00 16.6 -- -- -- -- 0 -- -- 99
2017-08-24 04:00:00 17.5 -- -- -- -- 0 -- -- 99
2017-08-24 03:00:00 19.1 -- -- -- -- 0 -- -- 97
2017-08-24 02:00:00 20.7 -- -- -- -- 0 -- -- 93
2017-08-24 01:00:00 22.2 -- -- -- -- 0 -- -- 87
2017-08-24 00:00:00 24.1 -- -- -- -- 0 -- -- 77